createdAt,value
2022-08-03T00:00:05.992Z,17.79
2022-08-03T00:01:05.951Z,17.83
2022-08-03T00:02:05.996Z,17.86
2022-08-03T00:03:06.028Z,17.79
2022-08-03T00:04:05.931Z,17.78
2022-08-03T00:05:05.909Z,17.75
2022-08-03T00:06:05.903Z,17.73
2022-08-03T00:07:05.869Z,17.72
2022-08-03T00:08:05.895Z,17.72
2022-08-03T00:09:05.855Z,17.69
2022-08-03T00:10:05.868Z,17.68
2022-08-03T00:11:05.815Z,17.66
2022-08-03T00:12:05.824Z,17.66
2022-08-03T00:13:05.848Z,17.63
2022-08-03T00:14:05.798Z,17.59
2022-08-03T00:15:10.465Z,17.62
2022-08-03T00:16:05.767Z,17.57
2022-08-03T00:17:05.738Z,17.59
2022-08-03T00:18:05.744Z,17.57
2022-08-03T00:19:05.813Z,17.54
2022-08-03T00:20:05.725Z,17.54
2022-08-03T00:21:05.689Z,17.59
2022-08-03T00:22:05.681Z,17.62
2022-08-03T00:23:05.661Z,17.62
2022-08-03T00:24:05.721Z,17.65
2022-08-03T00:25:05.650Z,17.63
2022-08-03T00:26:05.662Z,17.65
2022-08-03T00:27:05.612Z,17.65
2022-08-03T00:28:05.606Z,17.63
2022-08-03T00:29:05.579Z,17.66
2022-08-03T00:30:05.612Z,17.66
2022-08-03T00:31:05.555Z,17.65
2022-08-03T00:32:05.561Z,17.65
2022-08-03T00:33:05.529Z,17.65
2022-08-03T00:34:05.980Z,17.65
2022-08-03T00:35:09.799Z,17.65
2022-08-03T00:36:05.513Z,17.59
2022-08-03T00:37:05.475Z,17.62
2022-08-03T00:38:05.477Z,17.63
2022-08-03T00:39:05.470Z,17.63
2022-08-03T00:40:05.632Z,17.63
2022-08-03T00:41:05.425Z,17.65
2022-08-03T00:42:05.430Z,17.63
2022-08-03T00:43:05.396Z,17.56
2022-08-03T00:44:05.424Z,17.53
2022-08-03T00:45:05.371Z,17.52
2022-08-03T00:46:05.403Z,17.53
2022-08-03T00:47:05.346Z,17.50
2022-08-03T00:48:05.349Z,17.50
2022-08-03T00:49:05.360Z,17.54
2022-08-03T00:50:05.328Z,17.53
2022-08-03T00:51:05.348Z,17.54
2022-08-03T00:52:09.315Z,17.54
2022-08-03T00:53:05.266Z,17.54
2022-08-03T00:54:05.283Z,17.53
2022-08-03T00:55:05.251Z,17.54
2022-08-03T00:56:05.244Z,17.53
2022-08-03T00:57:05.239Z,17.50
2022-08-03T00:58:05.231Z,17.46
2022-08-03T00:59:05.193Z,17.49
2022-08-03T01:00:05.206Z,17.47
2022-08-03T01:01:05.231Z,17.50
2022-08-03T01:02:05.193Z,17.49
2022-08-03T01:03:05.162Z,17.49
2022-08-03T01:04:05.132Z,17.52
2022-08-03T01:05:05.127Z,17.50
2022-08-03T01:06:05.093Z,17.53
2022-08-03T01:07:05.102Z,17.53
2022-08-03T01:08:05.116Z,17.56
2022-08-03T01:09:05.086Z,17.54
2022-08-03T01:10:05.042Z,17.54
2022-08-03T01:11:05.043Z,17.59
2022-08-03T01:12:05.020Z,17.57
2022-08-03T01:13:05.052Z,17.63
2022-08-03T01:14:18.820Z,17.63
2022-08-03T01:15:05.023Z,17.62
2022-08-03T01:16:04.969Z,17.66
2022-08-03T01:17:04.980Z,17.69
2022-08-03T01:18:04.987Z,17.66
2022-08-03T01:20:00.580Z,17.68
2022-08-03T01:21:01.588Z,17.63
2022-08-03T01:22:01.548Z,17.63
2022-08-03T01:23:01.553Z,17.65
2022-08-03T01:24:01.551Z,17.63
2022-08-03T01:25:01.530Z,17.62
2022-08-03T01:26:01.501Z,17.63
2022-08-03T01:27:03.269Z,17.63
2022-08-03T01:28:01.471Z,17.65
2022-08-03T01:29:01.531Z,17.68
2022-08-03T01:30:01.443Z,17.68
2022-08-03T01:31:01.447Z,17.66
2022-08-03T01:33:02.687Z,17.68
2022-08-03T01:33:08.169Z,17.68
2022-08-03T01:34:01.406Z,17.68
2022-08-03T01:35:01.423Z,17.66
2022-08-03T01:36:01.370Z,17.65
2022-08-03T01:37:01.390Z,17.68
2022-08-03T01:38:01.350Z,17.63
2022-08-03T01:39:01.346Z,17.65
2022-08-03T01:40:01.360Z,17.62
2022-08-03T01:41:01.318Z,17.54
2022-08-03T01:42:01.292Z,17.53
2022-08-03T01:43:01.302Z,17.53
2022-08-03T01:44:29.966Z,17.49
2022-08-03T01:45:01.282Z,17.43
2022-08-03T01:46:01.269Z,17.39
2022-08-03T01:47:01.249Z,17.38
2022-08-03T01:48:01.211Z,17.41
2022-08-03T01:49:01.299Z,17.43
2022-08-03T01:50:01.194Z,17.41
2022-08-03T01:51:01.229Z,17.38
2022-08-03T01:52:04.086Z,17.38
2022-08-03T01:53:01.164Z,17.35
2022-08-03T01:54:01.140Z,17.35
2022-08-03T01:55:01.140Z,17.32
2022-08-03T01:56:01.113Z,17.30
2022-08-03T01:57:01.140Z,17.32
2022-08-03T01:58:06.177Z,17.30
2022-08-03T01:59:01.089Z,17.32
2022-08-03T02:00:01.058Z,17.35
2022-08-03T02:01:01.211Z,17.37
2022-08-03T02:02:15.258Z,17.41
2022-08-03T02:03:01.043Z,17.39
2022-08-03T02:04:01.332Z,17.38
2022-08-03T02:05:01.007Z,17.37
2022-08-03T02:07:01.437Z,17.35
2022-08-03T02:07:07.853Z,17.31
2022-08-03T02:08:00.976Z,17.24
2022-08-03T02:09:00.955Z,17.17
2022-08-03T02:10:00.923Z,17.13
2022-08-03T02:11:00.931Z,17.13
2022-08-03T02:12:00.900Z,17.14
2022-08-03T02:13:00.924Z,17.22
2022-08-03T02:14:00.882Z,17.27
2022-08-03T02:15:00.995Z,17.27
2022-08-03T02:16:00.847Z,17.19
2022-08-03T02:17:00.850Z,17.16
2022-08-03T02:18:00.892Z,17.12
2022-08-03T02:19:00.826Z,17.10
2022-08-03T02:20:00.802Z,17.06
2022-08-03T02:21:00.793Z,17.02
2022-08-03T02:22:01.250Z,17.04
2022-08-03T02:23:00.765Z,17.01
2022-08-03T02:24:00.801Z,16.98
2022-08-03T02:25:00.749Z,17.01
2022-08-03T02:26:01.800Z,17.01
2022-08-03T02:27:00.719Z,16.99
2022-08-03T02:28:00.685Z,16.97
2022-08-03T02:29:00.739Z,16.94
2022-08-03T02:30:00.670Z,16.92
2022-08-03T02:31:00.673Z,16.92
2022-08-03T02:32:00.637Z,16.95
2022-08-03T02:33:00.700Z,17.01
2022-08-03T02:34:00.610Z,17.10
2022-08-03T02:35:00.668Z,17.19
2022-08-03T02:36:00.598Z,17.20
2022-08-03T02:37:00.588Z,17.22
2022-08-03T02:38:00.563Z,17.20
2022-08-03T02:39:00.562Z,17.19
2022-08-03T02:40:00.579Z,17.17
2022-08-03T02:41:00.543Z,17.19
2022-08-03T02:42:00.508Z,17.20
2022-08-03T02:43:00.511Z,17.20
2022-08-03T02:44:06.903Z,17.22
2022-08-03T02:45:00.497Z,17.22
2022-08-03T02:46:00.509Z,17.25
2022-08-03T02:47:00.458Z,17.24
2022-08-03T02:48:00.440Z,17.24
2022-08-03T02:49:00.460Z,17.22
2022-08-03T02:50:00.486Z,17.19
2022-08-03T02:51:00.455Z,17.19
2022-08-03T02:52:00.437Z,17.17
2022-08-03T02:53:00.384Z,17.16
2022-08-03T02:54:00.361Z,17.22
2022-08-03T02:55:00.363Z,17.25
2022-08-03T02:56:00.324Z,17.25
2022-08-03T02:57:00.351Z,17.27
2022-08-03T02:58:01.396Z,17.31
2022-08-03T02:59:00.305Z,17.31
2022-08-03T03:00:00.276Z,17.35
2022-08-03T03:01:00.311Z,17.37
2022-08-03T03:02:00.292Z,17.38
2022-08-03T03:03:00.322Z,17.41
2022-08-03T03:04:00.229Z,17.43
2022-08-03T03:05:55.074Z,17.43
2022-08-03T03:06:01.469Z,17.37
2022-08-03T03:07:00.195Z,17.38
2022-08-03T03:08:00.204Z,17.38
2022-08-03T03:09:00.170Z,17.38
2022-08-03T03:10:00.161Z,17.37
2022-08-03T03:11:00.180Z,17.35
2022-08-03T03:12:00.135Z,17.32
2022-08-03T03:13:00.180Z,17.27
2022-08-03T03:14:00.112Z,17.22
2022-08-03T03:15:00.218Z,17.17
2022-08-03T03:16:00.078Z,17.13
2022-08-03T03:17:00.067Z,17.13
2022-08-03T03:18:00.045Z,17.07
2022-08-03T03:19:00.101Z,17.04
2022-08-03T03:20:00.016Z,17.04
2022-08-03T03:21:00.026Z,16.99
2022-08-03T03:21:59.988Z,16.94
2022-08-03T03:23:00.003Z,16.94
2022-08-03T03:24:00.004Z,16.94
2022-08-03T03:24:59.975Z,16.91
2022-08-03T03:25:59.879Z,16.91
2022-08-03T03:26:59.879Z,16.83
2022-08-03T03:27:59.862Z,16.76
2022-08-03T03:28:59.880Z,16.72
2022-08-03T03:29:59.859Z,16.69
2022-08-03T03:30:59.842Z,16.65
2022-08-03T03:31:59.821Z,16.65
2022-08-03T03:32:59.810Z,16.67
2022-08-03T03:33:59.804Z,16.65
2022-08-03T03:34:59.823Z,16.65
2022-08-03T03:35:59.753Z,16.64
2022-08-03T03:36:59.755Z,16.64
2022-08-03T03:37:59.721Z,16.64
2022-08-03T03:38:59.729Z,16.61
2022-08-03T03:39:59.721Z,16.67
2022-08-03T03:40:59.717Z,16.70
2022-08-03T03:41:59.694Z,16.72
2022-08-03T03:42:59.656Z,16.76
2022-08-03T03:43:59.662Z,16.73
2022-08-03T03:44:59.637Z,16.67
2022-08-03T03:45:59.674Z,16.62
2022-08-03T03:46:59.611Z,16.61
2022-08-03T03:47:59.612Z,16.59
2022-08-03T03:48:59.633Z,16.57
2022-08-03T03:49:59.575Z,16.57
2022-08-03T03:50:59.615Z,16.57
2022-08-03T03:51:59.587Z,16.59
2022-08-03T03:52:59.529Z,16.64
2022-08-03T03:53:59.529Z,16.61
2022-08-03T03:55:01.329Z,16.62
2022-08-03T03:56:02.882Z,16.64
2022-08-03T03:56:59.498Z,16.64
2022-08-03T03:57:59.477Z,16.58
2022-08-03T03:58:59.449Z,16.55
2022-08-03T03:59:59.452Z,16.51
2022-08-03T04:00:59.497Z,16.43
2022-08-03T04:01:59.501Z,16.39
2022-08-03T04:02:59.397Z,16.33
2022-08-03T04:03:59.401Z,16.33
2022-08-03T04:04:59.375Z,16.33
2022-08-03T04:05:59.378Z,16.26
2022-08-03T04:06:59.353Z,16.26
2022-08-03T04:07:59.379Z,16.24
2022-08-03T04:08:59.319Z,16.18
2022-08-03T04:09:59.321Z,16.13
2022-08-03T04:10:59.300Z,16.14
2022-08-03T04:11:59.312Z,16.17
2022-08-03T04:12:59.315Z,16.16
2022-08-03T04:14:02.009Z,16.17
2022-08-03T04:14:59.255Z,16.17
2022-08-03T04:15:59.255Z,16.17
2022-08-03T04:16:59.220Z,16.18
2022-08-03T04:17:59.219Z,16.22
2022-08-03T04:18:59.500Z,16.26
2022-08-03T04:19:59.197Z,16.34
2022-08-03T04:20:59.165Z,16.39
2022-08-03T04:21:59.162Z,16.46
2022-08-03T04:22:59.137Z,16.51
2022-08-03T04:23:59.181Z,16.54
2022-08-03T04:24:59.116Z,16.59
2022-08-03T04:25:59.117Z,16.61
2022-08-03T04:26:59.090Z,16.64
2022-08-03T04:28:08.009Z,16.62
2022-08-03T04:28:59.070Z,16.67
2022-08-03T04:29:59.090Z,16.69
2022-08-03T04:30:59.041Z,16.70
2022-08-03T04:31:59.041Z,16.72
2022-08-03T04:32:59.015Z,16.74
2022-08-03T04:33:59.042Z,16.79
2022-08-03T04:34:59.024Z,16.82
2022-08-03T04:36:01.677Z,16.83
2022-08-03T04:36:58.954Z,16.90
2022-08-03T04:37:58.954Z,16.91
2022-08-03T04:38:58.929Z,16.94
2022-08-03T04:39:58.928Z,16.97
2022-08-03T04:40:58.946Z,16.99
2022-08-03T04:42:06.943Z,17.01
2022-08-03T04:42:58.890Z,17.01
2022-08-03T04:43:58.885Z,17.04
2022-08-03T04:45:01.447Z,17.07
2022-08-03T04:45:58.902Z,17.10
2022-08-03T04:46:58.838Z,17.14
2022-08-03T04:47:58.818Z,17.20
2022-08-03T04:48:58.829Z,17.27
2022-08-03T04:49:58.799Z,17.32
2022-08-03T04:50:58.777Z,17.37
2022-08-03T04:51:58.800Z,17.45
2022-08-03T04:52:58.744Z,17.49
2022-08-03T04:53:58.745Z,17.52
2022-08-03T04:54:58.719Z,17.57
2022-08-03T04:55:58.720Z,17.62
2022-08-03T04:56:58.737Z,17.63
2022-08-03T04:57:58.699Z,17.68
2022-08-03T04:58:58.668Z,17.73
2022-08-03T05:00:03.158Z,17.88
2022-08-03T05:00:58.650Z,18.26
2022-08-03T05:01:58.739Z,18.86
2022-08-03T05:02:58.647Z,19.68
2022-08-03T05:03:58.622Z,20.46
2022-08-03T05:04:58.597Z,21.07
2022-08-03T05:06:09.606Z,21.40
2022-08-03T05:06:58.564Z,21.69
2022-08-03T05:07:58.596Z,22.04
2022-08-03T05:08:58.536Z,22.28
2022-08-03T05:10:02.834Z,22.44
2022-08-03T05:10:58.869Z,22.58
2022-08-03T05:11:58.518Z,22.77
2022-08-03T05:12:58.540Z,23.07
2022-08-03T05:13:58.483Z,23.42
2022-08-03T05:14:58.470Z,23.71
2022-08-03T05:15:58.461Z,24.01
2022-08-03T05:16:58.439Z,24.26
2022-08-03T05:17:58.434Z,24.43
2022-08-03T05:18:58.442Z,24.44
2022-08-03T05:19:58.414Z,24.34
2022-08-03T05:20:58.394Z,24.06
2022-08-03T05:21:58.381Z,23.56
2022-08-03T05:22:58.358Z,23.07
2022-08-03T05:23:58.401Z,22.66
2022-08-03T05:24:58.335Z,22.23
2022-08-03T05:25:58.340Z,21.94
2022-08-03T05:26:58.344Z,21.71
2022-08-03T05:27:58.304Z,21.50
2022-08-03T05:28:58.310Z,21.28
2022-08-03T05:30:30.956Z,21.13
2022-08-03T05:30:58.258Z,21.00
2022-08-03T05:31:58.270Z,20.90
2022-08-03T05:32:58.232Z,20.93
2022-08-03T05:33:58.232Z,21.04
2022-08-03T05:34:58.245Z,21.30
2022-08-03T05:36:03.223Z,21.71
2022-08-03T05:36:58.175Z,22.23
2022-08-03T05:37:58.192Z,22.74
2022-08-03T05:39:02.471Z,23.03
2022-08-03T05:39:58.151Z,23.01
2022-08-03T05:41:21.961Z,22.88
2022-08-03T05:41:58.137Z,23.01
2022-08-03T05:42:58.100Z,23.39
2022-08-03T05:43:58.116Z,23.92
2022-08-03T05:44:58.089Z,24.33
2022-08-03T05:46:11.479Z,24.62
2022-08-03T05:46:58.049Z,24.86
2022-08-03T05:47:58.050Z,25.12
2022-08-03T05:48:58.090Z,25.30
2022-08-03T05:49:58.026Z,25.43
2022-08-03T05:50:57.996Z,25.49
2022-08-03T05:51:59.998Z,25.55
2022-08-03T05:52:57.968Z,25.66
2022-08-03T05:53:57.969Z,25.68
2022-08-03T05:54:57.942Z,25.51
2022-08-03T05:56:03.471Z,25.40
2022-08-03T05:56:57.956Z,25.36
2022-08-03T05:57:57.920Z,25.28
2022-08-03T05:58:57.888Z,25.26
2022-08-03T05:59:58.661Z,25.27
2022-08-03T06:00:57.859Z,25.15
2022-08-03T06:01:57.955Z,25.22
2022-08-03T06:02:57.844Z,25.43
2022-08-03T06:03:57.843Z,25.56
2022-08-03T06:04:57.815Z,25.70
2022-08-03T06:06:00.254Z,25.88
2022-08-03T06:06:57.789Z,25.96
2022-08-03T06:07:57.816Z,25.68
2022-08-03T06:08:57.754Z,25.52
2022-08-03T06:10:36.291Z,25.59
2022-08-03T06:10:57.753Z,25.81
2022-08-03T06:11:57.758Z,25.86
2022-08-03T06:12:57.753Z,25.90
2022-08-03T06:13:57.721Z,25.98
2022-08-03T06:14:57.696Z,26.00
2022-08-03T06:15:57.701Z,25.90
2022-08-03T06:16:57.660Z,25.90
2022-08-03T06:18:01.761Z,26.05
2022-08-03T06:18:57.704Z,26.00
2022-08-03T06:19:57.642Z,26.04
2022-08-03T06:20:57.620Z,26.05
2022-08-03T06:21:57.607Z,26.01
2022-08-03T06:23:00.942Z,25.98
2022-08-03T06:23:57.629Z,25.96
2022-08-03T06:24:57.549Z,25.93
2022-08-03T06:25:57.560Z,25.82
2022-08-03T06:26:57.576Z,25.77
2022-08-03T06:27:57.528Z,25.89
2022-08-03T06:28:57.559Z,25.82
2022-08-03T06:29:57.508Z,25.52
2022-08-03T06:30:57.510Z,25.34
2022-08-03T06:31:57.472Z,25.37
2022-08-03T06:32:57.453Z,25.63
2022-08-03T06:34:33.510Z,25.70
2022-08-03T06:34:57.457Z,25.88
2022-08-03T06:35:57.428Z,26.00
2022-08-03T06:37:01.720Z,26.11
2022-08-03T06:37:57.402Z,26.21
2022-08-03T06:38:57.389Z,26.26
2022-08-03T06:39:57.433Z,26.43
2022-08-03T06:40:57.354Z,26.33
2022-08-03T06:41:57.348Z,26.33
2022-08-03T06:42:57.329Z,26.31
2022-08-03T06:44:03.290Z,26.34
2022-08-03T06:44:57.305Z,26.61
2022-08-03T06:45:57.320Z,26.76
2022-08-03T06:46:57.269Z,26.82
2022-08-03T06:47:57.272Z,26.95
2022-08-03T06:48:57.321Z,27.13
2022-08-03T06:50:14.262Z,27.19
2022-08-03T06:50:57.242Z,27.30
2022-08-03T06:52:06.107Z,27.38
2022-08-03T06:52:57.202Z,27.41
2022-08-03T06:53:57.192Z,27.45
2022-08-03T06:54:57.181Z,27.32
2022-08-03T06:55:57.216Z,27.32
2022-08-03T06:56:57.148Z,27.44
2022-08-03T06:57:59.865Z,27.44
2022-08-03T06:58:57.122Z,27.45
2022-08-03T07:00:08.850Z,27.45
2022-08-03T07:00:57.195Z,27.54
2022-08-03T07:01:57.118Z,27.70
2022-08-03T07:02:58.475Z,27.78
2022-08-03T07:03:57.084Z,27.66
2022-08-03T07:04:57.207Z,27.78
2022-08-03T07:05:57.037Z,27.82
2022-08-03T07:06:57.067Z,27.85
2022-08-03T07:07:57.012Z,27.75
2022-08-03T07:08:59.610Z,27.87
2022-08-03T07:09:58.285Z,27.97
2022-08-03T07:10:56.997Z,27.98
2022-08-03T07:11:56.970Z,28.03
2022-08-03T07:12:57.096Z,28.00
2022-08-03T07:13:56.945Z,27.91
2022-08-03T07:15:00.819Z,27.94
2022-08-03T07:15:57.040Z,27.98
2022-08-03T07:16:56.886Z,27.98
2022-08-03T07:17:56.923Z,27.95
2022-08-03T07:18:56.886Z,28.17
2022-08-03T07:19:57.031Z,28.38
2022-08-03T07:20:56.832Z,28.61
2022-08-03T07:22:00.166Z,28.74
2022-08-03T07:22:56.825Z,28.81
2022-08-03T07:23:56.872Z,28.93
2022-08-03T07:24:56.781Z,29.12
2022-08-03T07:25:56.815Z,29.06
2022-08-03T07:26:56.844Z,28.84
2022-08-03T07:27:56.766Z,28.83
2022-08-03T07:28:56.799Z,28.93
2022-08-03T07:29:56.743Z,28.87
2022-08-03T07:30:56.719Z,28.90
2022-08-03T07:31:56.715Z,28.96
2022-08-03T07:32:56.694Z,29.10
2022-08-03T07:33:56.681Z,28.91
2022-08-03T07:35:00.552Z,28.98
2022-08-03T07:35:56.669Z,29.15
2022-08-03T07:36:56.641Z,29.25
2022-08-03T07:37:56.660Z,29.43
2022-08-03T07:38:56.600Z,29.56
2022-08-03T07:39:56.655Z,29.70
2022-08-03T07:40:56.590Z,29.66
2022-08-03T07:41:56.641Z,29.65
2022-08-03T07:42:56.547Z,29.68
2022-08-03T07:43:56.573Z,29.74
2022-08-03T07:44:56.526Z,29.77
2022-08-03T07:45:56.551Z,29.68
2022-08-03T07:46:56.721Z,29.78
2022-08-03T07:47:56.501Z,29.87
2022-08-03T07:48:56.492Z,29.95
2022-08-03T07:49:56.469Z,29.98
2022-08-03T07:50:56.498Z,30.05
2022-08-03T07:51:56.466Z,30.03
2022-08-03T07:52:56.420Z,30.05
2022-08-03T07:53:56.436Z,29.91
2022-08-03T07:54:56.415Z,29.78
2022-08-03T07:55:56.389Z,29.56
2022-08-03T07:56:56.418Z,29.71
2022-08-03T07:57:56.390Z,29.91
2022-08-03T07:58:56.402Z,30.07
2022-08-03T08:00:01.337Z,30.17
2022-08-03T08:00:56.420Z,30.36
2022-08-03T08:01:56.355Z,30.39
2022-08-03T08:02:56.320Z,30.48
2022-08-03T08:03:56.278Z,30.35
2022-08-03T08:04:56.283Z,30.39
2022-08-03T08:05:56.262Z,30.37
2022-08-03T08:06:56.349Z,30.30
2022-08-03T08:07:56.267Z,30.17
2022-08-03T08:08:56.379Z,30.24
2022-08-03T08:09:56.231Z,30.32
2022-08-03T08:10:58.378Z,30.36
2022-08-03T08:11:56.184Z,30.56
2022-08-03T08:12:56.277Z,30.56
2022-08-03T08:13:56.159Z,30.59
2022-08-03T08:14:56.169Z,30.74
2022-08-03T08:15:56.136Z,30.70
2022-08-03T08:16:56.133Z,30.56
2022-08-03T08:17:56.307Z,30.37
2022-08-03T08:18:56.138Z,30.37
2022-08-03T08:19:56.215Z,30.62
2022-08-03T08:20:56.108Z,30.60
2022-08-03T08:22:02.847Z,30.74
2022-08-03T08:22:56.060Z,30.51
2022-08-03T08:23:57.151Z,30.60
2022-08-03T08:24:56.036Z,30.71
2022-08-03T08:25:56.017Z,30.71
2022-08-03T08:26:56.009Z,30.83
2022-08-03T08:28:22.363Z,31.01
2022-08-03T08:28:56.000Z,31.14
2022-08-03T08:30:00.589Z,31.24
2022-08-03T08:30:56.036Z,31.34
2022-08-03T08:31:55.935Z,31.33
2022-08-03T08:32:55.935Z,31.10
2022-08-03T08:34:04.606Z,31.10
2022-08-03T08:34:55.939Z,31.22
2022-08-03T08:35:55.886Z,31.10
2022-08-03T08:36:55.925Z,31.29
2022-08-03T08:37:55.861Z,31.41
2022-08-03T08:38:55.861Z,31.52
2022-08-03T08:39:55.921Z,31.82
2022-08-03T08:40:55.843Z,31.95
2022-08-03T08:41:55.821Z,31.95
2022-08-03T08:42:58.743Z,31.76
2022-08-03T08:43:59.953Z,31.81
2022-08-03T08:44:55.799Z,31.59
2022-08-03T08:45:55.916Z,31.74
2022-08-03T08:46:55.791Z,31.86
2022-08-03T08:48:00.178Z,31.82
2022-08-03T08:48:55.773Z,31.42
2022-08-03T08:50:09.339Z,31.48
2022-08-03T08:50:55.747Z,31.26
2022-08-03T08:52:00.699Z,30.99
2022-08-03T08:52:55.800Z,30.89
2022-08-03T08:53:55.680Z,31.11
2022-08-03T08:54:55.697Z,31.29
2022-08-03T08:55:58.686Z,31.48
2022-08-03T08:56:55.648Z,31.14
2022-08-03T08:57:55.608Z,31.17
2022-08-03T08:58:55.629Z,30.99
2022-08-03T08:59:57.321Z,30.60
2022-08-03T09:00:55.648Z,30.40
2022-08-03T09:01:55.592Z,30.71
2022-08-03T09:02:55.588Z,30.97
2022-08-03T09:03:55.549Z,31.23
2022-08-03T09:04:55.569Z,31.52
2022-08-03T09:05:56.416Z,31.81
2022-08-03T09:07:18.842Z,31.94
2022-08-03T09:07:55.491Z,31.79
2022-08-03T09:08:55.487Z,31.56
2022-08-03T09:10:10.649Z,31.64
2022-08-03T09:10:55.471Z,31.78
2022-08-03T09:12:13.751Z,31.71
2022-08-03T09:12:55.440Z,31.87
2022-08-03T09:13:55.418Z,31.61
2022-08-03T09:15:16.032Z,31.59
2022-08-03T09:16:01.020Z,31.52
2022-08-03T09:16:55.404Z,31.81
2022-08-03T09:17:55.394Z,32.05
2022-08-03T09:18:55.363Z,32.35
2022-08-03T09:20:03.283Z,32.53
2022-08-03T09:20:55.348Z,32.72
2022-08-03T09:21:55.318Z,32.53
2022-08-03T09:22:55.400Z,32.57
2022-08-03T09:24:02.173Z,32.65
2022-08-03T09:25:21.711Z,32.72
2022-08-03T09:25:55.311Z,32.60
2022-08-03T09:26:55.279Z,32.05
2022-08-03T09:27:55.238Z,31.71
2022-08-03T09:29:01.994Z,31.61
2022-08-03T09:29:55.237Z,31.68
2022-08-03T09:30:55.218Z,31.90
2022-08-03T09:31:55.192Z,32.09
2022-08-03T09:32:55.201Z,32.20
2022-08-03T09:33:55.215Z,32.45
2022-08-03T09:34:58.126Z,32.50
2022-08-03T09:35:57.640Z,32.46
2022-08-03T09:36:55.952Z,32.51
2022-08-03T09:38:11.848Z,32.73
2022-08-03T09:38:55.181Z,32.83
2022-08-03T09:39:55.139Z,32.95
2022-08-03T09:40:59.510Z,32.85
2022-08-03T09:41:55.094Z,32.87
2022-08-03T09:42:55.079Z,32.97
2022-08-03T09:43:55.049Z,32.99
2022-08-03T09:44:55.185Z,33.16
2022-08-03T09:45:55.034Z,33.04
2022-08-03T09:46:55.019Z,32.92
2022-08-03T09:47:55.051Z,32.90
2022-08-03T09:48:55.011Z,33.09
2022-08-03T09:49:55.151Z,33.27
2022-08-03T09:50:56.875Z,33.45
2022-08-03T09:52:33.235Z,33.22
2022-08-03T09:52:55.009Z,33.06
2022-08-03T09:53:58.894Z,33.07
2022-08-03T09:54:54.925Z,33.27
2022-08-03T09:56:33.720Z,33.36
2022-08-03T09:56:54.906Z,33.37
2022-08-03T09:57:54.899Z,33.47
2022-08-03T09:58:54.873Z,33.64
2022-08-03T10:00:04.778Z,33.91
2022-08-03T10:00:55.223Z,34.07
2022-08-03T10:01:54.865Z,33.71
2022-08-03T10:02:54.884Z,33.58
2022-08-03T10:04:04.311Z,33.41
2022-08-03T10:04:54.802Z,33.60
2022-08-03T10:05:59.375Z,33.71
2022-08-03T10:06:54.825Z,33.74
2022-08-03T10:07:54.810Z,33.69
2022-08-03T10:08:54.749Z,33.81
2022-08-03T10:09:54.769Z,33.91
2022-08-03T10:10:54.723Z,33.89
2022-08-03T10:11:54.712Z,33.93
2022-08-03T10:12:54.819Z,34.01
2022-08-03T10:14:01.180Z,34.15
2022-08-03T10:14:54.764Z,34.03
2022-08-03T10:16:21.425Z,33.85
2022-08-03T10:16:54.665Z,33.30
2022-08-03T10:17:54.731Z,33.19
2022-08-03T10:18:54.690Z,33.39
2022-08-03T10:19:54.598Z,33.36
2022-08-03T10:20:54.897Z,33.44
2022-08-03T10:21:54.575Z,33.52
2022-08-03T10:22:54.585Z,33.64
2022-08-03T10:23:54.656Z,33.73
2022-08-03T10:24:54.669Z,33.74
2022-08-03T10:25:54.535Z,33.74
2022-08-03T10:26:54.577Z,33.74
2022-08-03T10:27:54.497Z,33.84
2022-08-03T10:28:54.607Z,34.01
2022-08-03T10:29:54.536Z,34.19
2022-08-03T10:30:54.559Z,34.38
2022-08-03T10:31:57.925Z,34.42
2022-08-03T10:32:54.453Z,33.98
2022-08-03T10:33:54.551Z,33.92
2022-08-03T10:34:59.810Z,34.16
2022-08-03T10:35:54.423Z,34.04
2022-08-03T10:36:54.629Z,34.19
2022-08-03T10:37:56.923Z,34.18
2022-08-03T10:38:54.391Z,34.16
2022-08-03T10:39:54.410Z,34.08
2022-08-03T10:40:58.657Z,34.10
2022-08-03T10:41:54.550Z,34.08
2022-08-03T10:42:54.332Z,34.20
2022-08-03T10:43:54.335Z,34.23
2022-08-03T10:44:54.320Z,33.86
2022-08-03T10:45:54.315Z,34.00
2022-08-03T10:46:54.283Z,33.84
2022-08-03T10:47:54.278Z,34.00
2022-08-03T10:48:54.308Z,33.93
2022-08-03T10:49:54.314Z,33.76
2022-08-03T10:50:54.274Z,33.63
2022-08-03T10:51:54.501Z,33.69
2022-08-03T10:52:54.210Z,33.86
2022-08-03T10:53:55.688Z,34.08
2022-08-03T10:54:54.221Z,34.19
2022-08-03T10:55:54.175Z,34.04
2022-08-03T10:56:54.614Z,33.81
2022-08-03T10:57:58.469Z,33.62
2022-08-03T10:58:57.403Z,33.97
2022-08-03T10:59:54.143Z,34.18
2022-08-03T11:00:54.136Z,34.42
2022-08-03T11:02:00.269Z,34.40
2022-08-03T11:02:54.116Z,34.62
2022-08-03T11:03:54.058Z,34.86
2022-08-03T11:04:54.087Z,34.94
2022-08-03T11:05:54.038Z,35.01
2022-08-03T11:06:54.140Z,35.14
2022-08-03T11:07:54.761Z,35.10
2022-08-03T11:08:54.008Z,35.24
2022-08-03T11:09:54.057Z,35.34
2022-08-03T11:10:53.988Z,35.32
2022-08-03T11:11:54.005Z,35.50
2022-08-03T11:12:54.004Z,35.23
2022-08-03T11:13:53.940Z,34.91
2022-08-03T11:14:53.943Z,34.60
2022-08-03T11:15:53.936Z,34.16
2022-08-03T11:16:54.032Z,33.37
2022-08-03T11:17:55.982Z,33.30
2022-08-03T11:18:53.918Z,33.48
2022-08-03T11:19:56.905Z,33.36
2022-08-03T11:20:53.873Z,33.49
2022-08-03T11:21:53.832Z,33.74
2022-08-03T11:22:53.846Z,33.84
2022-08-03T11:24:05.620Z,33.97
2022-08-03T11:24:53.820Z,34.10
2022-08-03T11:25:55.386Z,34.22
2022-08-03T11:26:53.887Z,34.01
2022-08-03T11:27:53.771Z,34.01
2022-08-03T11:28:53.856Z,33.55
2022-08-03T11:29:53.774Z,33.57
2022-08-03T11:30:53.743Z,33.45
2022-08-03T11:31:53.725Z,33.39
2022-08-03T11:32:53.744Z,33.66
2022-08-03T11:33:53.714Z,33.81
2022-08-03T11:34:53.755Z,34.07
2022-08-03T11:35:53.663Z,34.29
2022-08-03T11:36:53.897Z,34.16
2022-08-03T11:38:03.123Z,33.69
2022-08-03T11:38:53.654Z,33.55
2022-08-03T11:39:53.620Z,33.82
2022-08-03T11:40:53.652Z,34.15
2022-08-03T11:41:53.626Z,34.11
2022-08-03T11:42:53.602Z,34.23
2022-08-03T11:43:53.580Z,34.13
2022-08-03T11:44:53.573Z,33.86
2022-08-03T11:45:53.626Z,33.71
2022-08-03T11:46:53.547Z,33.82
2022-08-03T11:47:53.527Z,34.00
2022-08-03T11:48:53.559Z,34.30
2022-08-03T11:49:53.507Z,34.42
2022-08-03T11:50:53.520Z,34.10
2022-08-03T11:51:53.503Z,33.81
2022-08-03T11:52:53.515Z,33.55
2022-08-03T11:53:53.449Z,33.44
2022-08-03T11:54:56.895Z,33.29
2022-08-03T11:55:53.471Z,33.29
2022-08-03T11:56:53.471Z,33.32
2022-08-03T11:59:11.261Z,33.55
2022-08-03T11:59:24.216Z,33.91
2022-08-03T11:59:53.373Z,33.91
2022-08-03T12:00:53.432Z,33.81
2022-08-03T12:01:53.345Z,34.01
2022-08-03T12:02:53.581Z,33.16
2022-08-03T12:03:53.423Z,33.17
2022-08-03T12:04:53.329Z,33.27
2022-08-03T12:05:53.313Z,33.10
2022-08-03T12:06:53.327Z,33.41
2022-08-03T12:08:03.641Z,33.42
2022-08-03T12:08:53.289Z,33.55
2022-08-03T12:09:53.301Z,33.54
2022-08-03T12:10:53.260Z,33.36
2022-08-03T12:11:59.835Z,33.32
2022-08-03T12:12:53.225Z,33.42
2022-08-03T12:14:32.972Z,33.52
2022-08-03T12:14:53.213Z,33.47
2022-08-03T12:15:53.226Z,33.22
2022-08-03T12:16:53.218Z,33.14
2022-08-03T12:17:57.591Z,33.39
2022-08-03T12:18:53.394Z,33.66
2022-08-03T12:19:53.151Z,33.62
2022-08-03T12:20:53.128Z,33.60
2022-08-03T12:21:57.255Z,33.45
2022-08-03T12:22:53.098Z,33.35
2022-08-03T12:23:53.101Z,33.26
2022-08-03T12:24:53.101Z,33.44
2022-08-03T12:25:53.259Z,33.41
2022-08-03T12:26:59.452Z,33.22
2022-08-03T12:27:53.053Z,33.30
2022-08-03T12:28:53.055Z,33.47
2022-08-03T12:29:58.203Z,33.47
2022-08-03T12:30:53.005Z,33.39
2022-08-03T12:31:53.010Z,33.06
2022-08-03T12:32:52.995Z,33.10
2022-08-03T12:33:53.003Z,33.37
2022-08-03T12:34:52.994Z,33.66
2022-08-03T12:35:52.965Z,33.49
2022-08-03T12:36:52.950Z,33.41
2022-08-03T12:37:52.933Z,33.85
2022-08-03T12:38:52.909Z,34.44
2022-08-03T12:40:01.415Z,34.85
2022-08-03T12:40:52.915Z,35.19
2022-08-03T12:41:52.889Z,35.29
2022-08-03T12:42:52.853Z,35.09
2022-08-03T12:43:52.875Z,34.98
2022-08-03T12:44:56.287Z,35.21
2022-08-03T12:45:52.937Z,35.29
2022-08-03T12:46:52.800Z,35.05
2022-08-03T12:47:52.911Z,35.07
2022-08-03T12:48:52.825Z,35.04
2022-08-03T12:49:52.886Z,35.23
2022-08-03T12:50:53.770Z,35.46
2022-08-03T12:51:52.935Z,35.53
2022-08-03T12:52:52.752Z,35.51